Time;durP1;ratioP1;P1;durP2;ratioP2;P2;SDS_P1;SDS_P2;PMS_P1;PMS_P2;Temp;Humidity;BMP_temperature;BMP_pressure;BME280_temperature;BME280_humidity;BME280_pressure;Samples;Min_cycle;Max_cycle;Signal;HPM_P1;HPM_P2
2021/11/04 00:00:57;;;;;;;13.80;9.20;;;;;;;10.73;62.58;98115.53;236631;1193;139059;-57
2021/11/04 00:06:01;;;;;;;14.30;9.50;;;;;;;10.69;62.80;98118.11;236773;1194;139698;-57
2021/11/04 00:11:04;;;;;;;13.10;9.20;;;;;;;10.65;62.92;98108.69;236414;1193;138892;-56
2021/11/04 00:16:09;;;;;;;12.80;8.50;;;;;;;10.61;63.00;98107.89;236595;1193;138565;-56
2021/11/04 00:21:12;;;;;;;10.90;7.90;;;;;;;10.62;63.18;98106.23;236570;1194;139980;-59
2021/11/04 00:26:17;;;;;;;12.50;8.70;;;;;;;10.66;63.76;98096.52;236662;1193;139127;-57
2021/11/04 00:31:20;;;;;;;15.50;9.00;;;;;;;10.72;63.58;98093.95;236606;1193;139482;-57
2021/11/04 00:36:23;;;;;;;12.30;9.30;;;;;;;10.78;63.64;98063.48;236305;1194;138397;-58
2021/11/04 00:41:26;;;;;;;13.90;9.70;;;;;;;10.80;63.69;98058.70;236347;1193;138506;-59
2021/11/04 00:46:31;;;;;;;13.00;10.00;;;;;;;10.81;63.95;98050.11;236579;1193;139616;-61
2021/11/04 00:51:34;;;;;;;14.10;10.90;;;;;;;10.80;63.85;98044.20;236564;1193;139280;-60
2021/11/04 00:56:36;;;;;;;13.30;10.50;;;;;;;10.78;63.89;98040.09;236606;1193;139313;-58
2021/11/04 01:01:40;;;;;;;15.20;8.90;;;;;;;10.73;63.81;98031.24;236401;1193;138397;-60
2021/11/04 01:06:43;;;;;;;12.20;8.00;;;;;;;10.74;64.05;98017.70;236635;1193;139126;-58
2021/11/04 01:11:46;;;;;;;10.30;7.80;;;;;;;10.78;64.11;98003.56;236734;1193;138939;-55
2021/11/04 01:16:49;;;;;;;11.00;7.60;;;;;;;10.83;64.10;97999.04;236574;1193;138689;-57
2021/11/04 01:21:52;;;;;;;9.30;7.20;;;;;;;10.91;64.26;97998.92;236500;1194;139972;-56
2021/11/04 01:26:55;;;;;;;9.50;7.20;;;;;;;10.94;64.36;97991.93;236221;1194;138798;-57
2021/11/04 01:31:58;;;;;;;9.70;7.00;;;;;;;10.97;64.45;97998.66;236613;1193;138784;-59
2021/11/04 01:37:02;;;;;;;9.80;7.00;;;;;;;10.95;64.12;97996.11;236409;1194;138344;-58
2021/11/04 01:42:05;;;;;;;9.00;6.80;;;;;;;10.93;64.19;97976.42;236683;1193;138053;-57
2021/11/04 01:47:09;;;;;;;8.40;6.30;;;;;;;10.89;64.28;97971.59;236540;1193;138385;-57
2021/11/04 01:52:12;;;;;;;10.60;6.70;;;;;;;10.88;64.21;97975.04;236451;1193;139296;-58
2021/11/04 01:57:15;;;;;;;10.50;6.60;;;;;;;10.92;64.40;97984.98;236563;1195;139687;-58
2021/11/04 02:02:23;;;;;;;11.60;6.60;;;;;;;10.97;64.38;97973.77;236559;1194;139073;-59
2021/11/04 02:07:30;;;;;;;9.70;6.50;;;;;;;11.02;64.38;97957.25;236411;1193;138504;-58
2021/11/04 02:12:40;;;;;;;9.00;6.80;;;;;;;11.03;64.25;97953.23;236527;1194;138962;-58
2021/11/04 02:18:15;;;;;;;10.40;6.40;;;;;;;11.03;64.51;97942.59;236702;1193;139449;-58
2021/11/04 02:23:35;;;;;;;8.40;6.20;;;;;;;11.02;64.42;97931.18;236546;1193;138359;-59
2021/11/04 02:28:39;;;;;;;8.80;6.70;;;;;;;11.02;64.48;97924.62;236478;1195;138433;-58
2021/11/04 02:33:43;;;;;;;9.70;6.30;;;;;;;10.99;64.49;97925.72;236622;1194;138658;-60
2021/11/04 02:38:48;;;;;;;8.30;5.80;;;;;;;10.98;63.99;97915.14;236342;1193;138872;-58
2021/11/04 02:43:51;;;;;;;7.60;6.00;;;;;;;11.01;64.55;97912.42;236570;1193;138230;-59
2021/11/04 02:48:55;;;;;;;8.60;6.30;;;;;;;11.08;64.57;97905.65;236728;1193;138389;-60
2021/11/04 02:53:59;;;;;;;11.40;6.50;;;;;;;11.15;64.38;97888.41;236578;1195;138827;-58
2021/11/04 02:59:02;;;;;;;11.20;6.20;;;;;;;11.16;64.34;97884.75;236631;1194;138166;-61
2021/11/04 03:04:05;;;;;;;9.90;6.10;;;;;;;11.14;64.52;97884.73;236636;1195;138835;-58
2021/11/04 03:09:08;;;;;;;9.40;6.40;;;;;;;11.12;64.30;97895.51;236505;1195;138090;-58
2021/11/04 03:14:13;;;;;;;9.20;6.20;;;;;;;11.12;64.43;97888.98;236539;1194;137856;-60
2021/11/04 03:19:18;;;;;;;8.30;5.90;;;;;;;11.10;64.70;97878.84;236281;1195;138367;-59
2021/11/04 03:24:23;;;;;;;9.10;5.50;;;;;;;11.06;64.38;97867.41;236390;1195;138804;-59
2021/11/04 03:29:31;;;;;;;8.80;5.30;;;;;;;11.06;64.43;97867.43;236049;1193;139124;-60
2021/11/04 03:34:36;;;;;;;9.40;5.70;;;;;;;11.09;64.52;97865.05;236655;1193;141100;-56
2021/11/04 03:39:40;;;;;;;10.00;6.10;;;;;;;11.10;64.69;97860.73;236621;1195;138090;-57
2021/11/04 03:44:44;;;;;;;8.90;6.00;;;;;;;11.13;64.42;97859.23;236619;1195;140489;-59
2021/11/04 03:49:50;;;;;;;7.40;5.70;;;;;;;11.15;64.51;97861.92;236649;1193;138247;-55
2021/11/04 03:54:53;;;;;;;8.30;5.50;;;;;;;11.13;64.70;97853.73;236715;1193;139086;-58
2021/11/04 03:59:57;;;;;;;9.60;5.90;;;;;;;11.11;64.39;97849.30;236637;1193;138220;-56
2021/11/04 04:05:00;;;;;;;8.30;5.90;;;;;;;11.08;64.12;97834.96;236675;1193;138319;-56
2021/11/04 04:10:03;;;;;;;9.40;5.90;;;;;;;11.05;64.28;97834.16;236613;1193;138948;-55
2021/11/04 04:15:06;;;;;;;9.60;5.70;;;;;;;11.04;64.34;97823.77;235957;1192;138352;-57
2021/11/04 04:20:10;;;;;;;8.60;5.10;;;;;;;11.06;64.05;97819.71;236311;1194;139689;-57
2021/11/04 04:25:13;;;;;;;8.70;5.40;;;;;;;11.11;64.35;97812.21;236628;1195;138838;-59
2021/11/04 04:30:16;;;;;;;7.40;5.40;;;;;;;11.17;64.37;97801.08;236473;1193;138876;-56
2021/11/04 04:35:19;;;;;;;8.10;5.50;;;;;;;11.22;64.25;97786.40;236301;1193;138289;-56
2021/11/04 04:40:22;;;;;;;6.70;5.10;;;;;;;11.24;64.14;97783.60;236274;1194;139870;-57
2021/11/04 04:45:25;;;;;;;8.90;5.30;;;;;;;11.26;64.22;97777.54;236402;1194;137984;-61
2021/11/04 04:50:29;;;;;;;9.30;6.00;;;;;;;11.25;64.11;97775.84;236594;1194;139595;-59
2021/11/04 04:55:32;;;;;;;115.20;79.70;;;;;;;11.30;64.28;97782.90;236648;1193;139356;-58
2021/11/04 05:00:35;;;;;;;10.00;5.80;;;;;;;11.36;64.33;97783.59;236170;1193;139061;-60
2021/11/04 05:05:39;;;;;;;8.40;5.00;;;;;;;11.35;64.02;97773.77;236206;1187;140262;-59
2021/11/04 05:10:42;;;;;;;6.50;5.20;;;;;;;11.35;63.75;97779.10;236231;1193;140874;-60
2021/11/04 05:15:45;;;;;;;8.30;6.10;;;;;;;11.35;64.05;97761.16;236732;1193;138104;-59
2021/11/04 05:20:48;;;;;;;10.50;7.60;;;;;;;11.41;64.25;97753.73;236435;1193;140462;-58
2021/11/04 05:25:55;;;;;;;7.00;4.80;;;;;;;11.46;64.28;97740.85;236550;1193;139158;-59
2021/11/04 05:31:00;;;;;;;9.90;5.40;;;;;;;11.40;63.54;97744.58;236631;1193;138828;-59
2021/11/04 05:36:03;;;;;;;10.70;5.30;;;;;;;11.38;63.79;97748.07;235861;1193;140470;-60
2021/11/04 05:41:07;;;;;;;9.80;5.30;;;;;;;11.36;63.81;97731.60;235856;1193;138736;-61
2021/11/04 05:46:10;;;;;;;8.80;5.40;;;;;;;11.30;63.94;97719.71;236462;1193;137795;-61
2021/11/04 05:51:13;;;;;;;9.20;5.30;;;;;;;11.24;63.96;97708.28;236665;1193;140612;-61
2021/11/04 05:56:16;;;;;;;8.00;5.40;;;;;;;11.25;63.79;97691.88;236330;1193;139345;-59
2021/11/04 06:01:20;;;;;;;9.50;5.20;;;;;;;11.29;64.27;97676.27;235935;1193;139928;-60
2021/11/04 06:06:23;;;;;;;8.30;5.50;;;;;;;11.32;64.16;97672.98;236348;1193;138556;-59
2021/11/04 06:11:26;;;;;;;8.40;5.40;;;;;;;11.32;64.11;97663.69;236126;1193;139002;-59
2021/11/04 06:16:29;;;;;;;8.80;5.70;;;;;;;11.33;64.14;97655.47;236631;1194;140030;-61
2021/11/04 06:21:32;;;;;;;10.50;5.30;;;;;;;11.35;64.48;97649.28;236671;1193;138108;-61
2021/11/04 06:26:36;;;;;;;7.60;4.90;;;;;;;11.38;64.35;97645.51;236196;1194;139468;-59
2021/11/04 06:31:39;;;;;;;9.30;5.80;;;;;;;11.40;64.52;97649.36;236234;1193;138622;-60
2021/11/04 06:36:43;;;;;;;9.10;5.60;;;;;;;11.45;64.54;97649.65;236479;1193;138532;-59
2021/11/04 06:41:46;;;;;;;10.80;5.30;;;;;;;11.51;64.60;97656.60;236508;1193;138294;-59
2021/11/04 06:46:50;;;;;;;10.90;5.20;;;;;;;11.63;64.81;97656.98;236581;1195;139570;-58
2021/11/04 06:51:55;;;;;;;8.40;5.60;;;;;;;11.71;64.89;97660.45;236142;1194;139789;-59
2021/11/04 06:57:05;;;;;;;8.30;5.30;;;;;;;11.79;64.96;97655.84;236037;1193;138479;-62
2021/11/04 07:02:12;;;;;;;12.80;5.90;;;;;;;11.82;64.56;97647.47;236565;1193;138795;-58
2021/11/04 07:07:17;;;;;;;10.60;5.30;;;;;;;11.85;64.73;97634.44;236681;1195;138938;-59
2021/11/04 07:12:20;;;;;;;;;;;;;;;11.95;64.72;97629.02;235815;1193;140564;-59
2021/11/04 07:17:24;;;;;;;9.40;5.10;;;;;;;12.03;64.88;97646.48;236386;1194;125735;-59
2021/11/04 07:22:29;;;;;;;7.90;4.40;;;;;;;12.08;64.89;97640.52;236194;1194;139194;-60
2021/11/04 07:27:37;;;;;;;;;;;;;;;12.09;64.56;97639.00;236466;1194;139696;-62
2021/11/04 07:32:47;;;;;;;6.60;4.80;;;;;;;12.12;64.66;97641.20;235286;1195;126397;-61
2021/11/04 07:37:51;;;;;;;8.10;4.90;;;;;;;12.18;64.83;97650.11;235932;1193;138052;-61
2021/11/04 07:42:54;;;;;;;10.00;4.90;;;;;;;12.22;64.82;97639.60;236353;1194;139266;-60
2021/11/04 07:47:59;;;;;;;10.30;5.00;;;;;;;12.26;64.82;97639.38;236607;1193;139217;-60
2021/11/04 07:53:02;;;;;;;13.30;4.80;;;;;;;12.29;64.87;97634.88;236343;1194;138516;-61
2021/11/04 07:58:05;;;;;;;13.90;4.80;;;;;;;12.31;64.64;97613.48;236617;1194;138616;-59
2021/11/04 08:03:09;;;;;;;9.80;5.00;;;;;;;12.32;64.71;97601.65;236687;1193;138332;-58
2021/11/04 08:08:11;;;;;;;9.30;4.50;;;;;;;12.34;65.02;97596.55;236230;1194;139449;-58
2021/11/04 08:13:14;;;;;;;8.30;4.20;;;;;;;12.36;64.75;97581.94;236231;1193;138350;-57
2021/11/04 08:18:18;;;;;;;7.60;4.60;;;;;;;12.40;64.79;97553.96;236501;1194;140789;-58
2021/11/04 08:23:22;;;;;;;8.20;4.50;;;;;;;12.49;65.06;97555.63;236455;1194;138955;-60
2021/11/04 08:28:25;;;;;;;10.50;5.40;;;;;;;12.58;65.01;97572.91;236543;1193;139004;-59
2021/11/04 08:33:29;;;;;;;8.90;5.30;;;;;;;12.66;65.11;97575.35;236789;1186;138665;-57
2021/11/04 08:38:32;;;;;;;15.80;6.20;;;;;;;12.73;64.87;97553.58;236194;1193;138514;-60
2021/11/04 08:43:35;;;;;;;15.60;7.40;;;;;;;12.81;65.06;97546.55;236455;1195;138765;-61
2021/11/04 08:48:39;;;;;;;19.60;7.80;;;;;;;12.91;64.97;97532.75;236505;1194;138294;-58
2021/11/04 08:53:42;;;;;;;18.50;8.00;;;;;;;12.99;64.92;97537.28;236324;1193;138728;-58
2021/11/04 08:58:48;;;;;;;8.90;4.40;;;;;;;13.07;64.97;97524.33;236461;1195;140634;-59
2021/11/04 09:03:51;;;;;;;13.00;5.10;;;;;;;13.13;64.95;97515.91;236508;1193;138798;-58
2021/11/04 09:08:54;;;;;;;9.30;4.70;;;;;;;13.22;64.87;97503.81;236236;1193;139712;-59
2021/11/04 09:13:58;;;;;;;10.70;5.10;;;;;;;13.32;64.86;97503.38;236504;1193;138155;-60
2021/11/04 09:19:02;;;;;;;10.60;4.90;;;;;;;13.42;64.82;97511.45;236379;1193;138277;-61
2021/11/04 09:24:06;;;;;;;8.90;4.50;;;;;;;13.50;64.76;97522.31;236379;1193;139119;-59
2021/11/04 09:29:09;;;;;;;13.60;4.90;;;;;;;13.58;64.83;97507.44;236330;1193;138384;-58
2021/11/04 09:34:12;;;;;;;10.80;4.30;;;;;;;13.68;64.67;97495.90;236444;1194;138552;-59
2021/11/04 09:39:16;;;;;;;9.10;4.00;;;;;;;13.79;64.59;97497.34;236516;1193;140140;-58
2021/11/04 09:44:20;;;;;;;9.10;4.30;;;;;;;13.86;64.43;97482.52;236264;1195;138321;-56
2021/11/04 09:49:27;;;;;;;192.10;129.00;;;;;;;13.93;64.40;97501.38;236318;1194;138145;-56
2021/11/04 09:54:30;;;;;;;15.30;8.00;;;;;;;14.03;64.36;97491.12;236509;1193;138930;-57
2021/11/04 09:59:33;;;;;;;31.00;19.60;;;;;;;14.33;65.62;97488.26;236520;1193;139099;-59
2021/11/04 10:04:38;;;;;;;12.50;7.70;;;;;;;15.46;67.62;97472.48;236434;1193;138879;-58
2021/11/04 10:09:43;;;;;;;12.90;7.50;;;;;;;16.22;65.97;97465.41;236722;1193;139513;-62
2021/11/04 10:14:46;;;;;;;9.90;4.70;;;;;;;17.05;65.55;97477.38;236207;1195;139787;-63
2021/11/04 10:19:50;;;;;;;10.80;5.40;;;;;;;17.64;64.66;97492.73;236318;1194;137972;-57
2021/11/04 10:24:54;;;;;;;8.50;4.80;;;;;;;18.09;63.37;97513.32;236489;1194;138734;-53
2021/11/04 10:30:03;;;;;;;62.20;40.90;;;;;;;18.38;62.42;97508.11;236072;1193;138104;-58
2021/11/04 10:35:09;;;;;;;7.30;4.40;;;;;;;18.29;60.31;97499.63;235833;1193;139454;-58
2021/11/04 10:40:19;;;;;;;6.50;3.50;;;;;;;17.73;58.92;97472.77;236251;1194;137986;-57
2021/11/04 10:45:25;;;;;;;6.10;3.60;;;;;;;17.02;58.44;97483.23;236065;1193;138390;-56
2021/11/04 10:50:42;;;;;;;8.60;4.20;;;;;;;16.48;58.65;97495.26;236384;1193;138588;-59
2021/11/04 10:55:45;;;;;;;7.30;4.20;;;;;;;16.06;58.93;97512.55;236498;1194;138231;-57
2021/11/04 11:00:48;;;;;;;9.50;4.10;;;;;;;15.73;59.33;97488.29;235989;1193;138422;-57
2021/11/04 11:05:55;;;;;;;9.20;4.10;;;;;;;15.49;59.71;97485.27;236721;1193;139141;-59
2021/11/04 11:10:59;;;;;;;7.60;3.80;;;;;;;15.29;59.89;97475.60;235835;1193;138388;-59
2021/11/04 11:16:04;;;;;;;11.90;4.70;;;;;;;15.13;60.33;97453.52;236741;1193;138158;-60
2021/11/04 11:21:09;;;;;;;8.30;4.30;;;;;;;14.98;60.49;97457.95;236438;1194;138536;-57
2021/11/04 11:26:15;;;;;;;11.80;4.30;;;;;;;14.86;60.74;97461.92;236633;1193;138707;-61
2021/11/04 11:31:20;;;;;;;7.20;3.60;;;;;;;14.77;60.98;97464.89;236685;1193;138927;-60
2021/11/04 11:36:26;;;;;;;15.80;4.60;;;;;;;14.75;61.42;97476.31;236852;1193;138730;-58
2021/11/04 11:41:34;;;;;;;10.40;4.70;;;;;;;14.79;61.61;97476.75;236842;1193;138693;-57
2021/11/04 11:47:03;;;;;;;10.50;4.70;;;;;;;14.92;62.04;97471.81;236658;1193;139287;-58
2021/11/04 11:52:10;;;;;;;14.00;6.50;;;;;;;15.04;62.06;97463.23;236788;1193;138600;-58
2021/11/04 11:57:14;;;;;;;21.00;7.40;;;;;;;15.11;62.25;97456.92;236999;1193;138358;-58
2021/11/04 12:02:35;;;;;;;15.00;7.40;;;;;;;15.17;62.12;97450.60;236998;1193;138327;-58
2021/11/04 12:07:40;;;;;;;19.90;8.40;;;;;;;15.21;62.22;97458.08;236943;1193;138234;-59
2021/11/04 12:12:45;;;;;;;17.80;9.00;;;;;;;15.22;62.33;97470.97;236983;1194;138048;-60
2021/11/04 12:18:13;;;;;;;15.90;6.80;;;;;;;15.24;62.38;97476.15;236785;1193;140440;-58
2021/11/04 12:23:16;;;;;;;16.60;6.40;;;;;;;15.27;62.44;97471.91;236131;1193;138942;-59
2021/11/04 12:28:19;;;;;;;10.60;3.90;;;;;;;15.28;62.56;97482.66;236887;1187;138390;-59
2021/11/04 12:33:22;;;;;;;5.50;2.90;;;;;;;15.31;62.77;97505.77;237023;1194;138883;-56
2021/11/04 12:38:45;;;;;;;7.50;2.80;;;;;;;15.44;62.83;97503.35;236891;1193;138595;-57
2021/11/04 12:43:49;;;;;;;7.00;2.70;;;;;;;15.58;62.87;97488.04;236847;1193;138131;-58
2021/11/04 12:48:57;;;;;;;13.10;3.40;;;;;;;15.69;63.01;97484.35;236747;1193;141138;-56
2021/11/04 12:54:02;;;;;;;8.70;3.60;;;;;;;15.85;63.08;97491.22;236923;1194;138459;-59
2021/11/04 12:59:12;;;;;;;12.90;4.70;;;;;;;15.95;62.82;97486.23;236720;1193;245858;-57
2021/11/04 13:04:32;;;;;;;13.00;5.10;;;;;;;15.98;62.71;97488.38;236963;1193;138363;-58
2021/11/04 13:09:48;;;;;;;12.70;5.30;;;;;;;16.01;62.75;97483.38;236904;1193;138341;-58
2021/11/04 13:14:54;;;;;;;8.90;3.80;;;;;;;16.03;62.65;97490.11;237112;1192;138794;-59
2021/11/04 13:20:21;;;;;;;4.90;1.40;;;;;;;16.10;62.60;97480.59;237118;1193;138817;-58
2021/11/04 13:25:29;;;;;;;5.70;0.60;;;;;;;16.51;62.25;97496.27;237098;1192;138193;-58
2021/11/04 13:30:40;;;;;;;1.20;0.50;;;;;;;17.00;61.40;97503.61;236941;1193;138724;-58
2021/11/04 13:36:06;;;;;;;2.20;0.60;;;;;;;17.41;60.28;97527.38;236941;1193;138127;-58
2021/11/04 13:41:09;;;;;;;3.20;0.50;;;;;;;17.67;59.14;97541.96;236906;1193;138443;-58
2021/11/04 13:46:20;;;;;;;3.60;0.70;;;;;;;17.89;58.63;97546.17;237095;1193;139805;-57
2021/11/04 13:51:29;;;;;;;1.70;0.60;;;;;;;18.03;58.04;97549.74;236790;1193;141077;-58
2021/11/04 13:56:32;;;;;;;4.60;0.70;;;;;;;18.11;57.44;97569.25;236568;1193;138772;-59
2021/11/04 14:01:35;;;;;;;2.70;0.60;;;;;;;18.17;57.11;97587.04;236953;1193;138582;-60
2021/11/04 14:06:40;;;;;;;6.40;2.80;;;;;;;18.17;56.72;97597.91;236736;1193;138857;-59
2021/11/04 14:11:43;;;;;;;3.90;0.90;;;;;;;18.15;55.97;97607.30;236818;1194;138240;-58
2021/11/04 14:16:47;;;;;;;1.80;0.70;;;;;;;18.11;55.16;97611.98;236149;1193;138265;-59
2021/11/04 14:21:50;;;;;;;1.30;0.70;;;;;;;18.05;54.55;97621.04;236880;1193;138185;-58
2021/11/04 14:26:53;;;;;;;3.00;0.80;;;;;;;17.98;54.14;97630.13;236866;1193;138481;-57
2021/11/04 14:31:57;;;;;;;4.30;1.10;;;;;;;17.90;53.81;97666.23;236375;1193;138697;-59
2021/11/04 14:37:01;;;;;;;4.60;1.80;;;;;;;17.78;54.09;97695.09;236488;1195;138714;-60
2021/11/04 14:42:05;;;;;;;2.70;1.50;;;;;;;17.54;54.50;97714.97;236886;1193;140973;-59
2021/11/04 14:47:08;;;;;;;3.60;1.70;;;;;;;17.16;54.99;97728.13;236368;1194;138180;-59
2021/11/04 14:52:11;;;;;;;4.10;1.70;;;;;;;16.74;55.28;97742.41;237014;1193;138164;-58
2021/11/04 14:57:14;;;;;;;4.10;1.60;;;;;;;16.37;55.68;97752.26;236724;1193;138604;-58
2021/11/04 15:02:18;;;;;;;3.70;1.80;;;;;;;16.08;56.14;97760.04;236878;1193;138453;-59
2021/11/04 15:07:21;;;;;;;3.80;1.90;;;;;;;15.86;56.46;97762.86;236273;1194;138768;-58
2021/11/04 15:12:24;;;;;;;5.00;2.00;;;;;;;15.64;56.76;97771.03;236676;1193;138228;-60
2021/11/04 15:17:27;;;;;;;3.50;2.00;;;;;;;15.42;57.11;97788.54;236896;1193;138410;-59
2021/11/04 15:22:31;;;;;;;6.00;2.20;;;;;;;15.23;57.34;97794.42;236793;1194;138996;-62
2021/11/04 15:27:34;;;;;;;28.40;17.50;;;;;;;15.07;57.61;97801.81;237038;1194;138472;-59
2021/11/04 15:32:40;;;;;;;5.50;3.20;;;;;;;14.99;57.80;97812.22;236325;1194;139783;-59
2021/11/04 15:37:44;;;;;;;4.70;2.20;;;;;;;14.86;57.75;97820.52;236232;1193;138836;-59
2021/11/04 15:42:47;;;;;;;9.10;2.40;;;;;;;14.70;57.81;97840.66;236572;1193;137786;-59
2021/11/04 15:47:50;;;;;;;4.90;2.20;;;;;;;14.56;57.69;97854.36;236412;1193;138849;-60
2021/11/04 15:53:10;;;;;;;4.20;2.40;;;;;;;14.39;57.55;97867.67;236102;1193;137842;-58
2021/11/04 15:58:13;;;;;;;3.00;1.80;;;;;;;14.30;57.43;97872.48;236705;1193;138789;-58
2021/11/04 16:03:17;;;;;;;5.80;2.10;;;;;;;14.20;57.68;97891.11;236577;1193;138279;-58
2021/11/04 16:08:22;;;;;;;5.60;2.50;;;;;;;14.10;57.51;97895.09;236583;1193;139031;-57
2021/11/04 16:13:28;;;;;;;;;;;;;;;14.05;57.64;97911.33;236465;1193;138531;-58
2021/11/04 16:18:31;;;;;;;4.00;2.40;;;;;;;13.98;57.33;97908.75;236549;1193;124882;-57
2021/11/04 16:23:34;;;;;;;6.30;2.30;;;;;;;13.94;57.37;97913.03;236529;1193;138767;-58
2021/11/04 16:28:37;;;;;;;16.40;8.50;;;;;;;13.91;57.31;97920.09;236233;1193;138566;-59
2021/11/04 16:33:40;;;;;;;6.10;2.00;;;;;;;13.95;57.09;97935.98;236551;1190;140065;-58
2021/11/04 16:38:43;;;;;;;8.10;1.40;;;;;;;13.97;56.77;97939.16;236283;1195;140917;-58
2021/11/04 16:43:47;;;;;;;5.80;1.20;;;;;;;14.01;56.50;97955.34;236385;1195;140074;-58
2021/11/04 16:48:52;;;;;;;1.50;0.90;;;;;;;14.04;55.92;97965.65;236029;1195;138435;-59
2021/11/04 16:53:55;;;;;;;2.60;1.10;;;;;;;14.05;55.43;97993.92;236400;1194;138253;-59
2021/11/04 16:58:58;;;;;;;4.30;1.60;;;;;;;14.05;55.14;98008.67;236471;1193;138547;-60
2021/11/04 17:04:15;;;;;;;4.90;2.70;;;;;;;14.04;54.89;98012.36;236469;1193;138467;-57
2021/11/04 17:09:19;;;;;;;8.90;3.70;;;;;;;13.95;55.10;98017.39;236156;1195;139651;-59
2021/11/04 17:14:23;;;;;;;6.90;3.90;;;;;;;13.78;55.10;98040.44;236482;1193;138384;-59
2021/11/04 17:19:26;;;;;;;7.60;3.20;;;;;;;13.63;55.20;98053.67;236552;1193;140557;-59
2021/11/04 17:24:29;;;;;;;8.80;4.30;;;;;;;13.53;55.77;98063.67;236296;1193;138964;-61
2021/11/04 17:29:32;;;;;;;9.80;4.10;;;;;;;13.43;55.47;98071.20;236541;1193;138715;-58
2021/11/04 17:34:36;;;;;;;12.10;5.40;;;;;;;13.32;55.75;98087.98;236465;1193;138198;-57
2021/11/04 17:39:39;;;;;;;9.10;4.40;;;;;;;13.34;55.70;98098.67;236609;1193;138613;-57
2021/11/04 17:44:43;;;;;;;8.60;4.50;;;;;;;13.08;55.38;98111.27;236293;1193;139200;-56
2021/11/04 17:49:47;;;;;;;7.30;3.90;;;;;;;12.82;55.04;98109.11;236397;1193;138238;-59
2021/11/04 17:54:55;;;;;;;9.40;4.10;;;;;;;12.53;55.25;98120.08;236527;1193;138330;-58
2021/11/04 17:59:58;;;;;;;9.40;4.30;;;;;;;12.28;55.09;98138.91;236580;1193;138264;-57
2021/11/04 18:05:02;;;;;;;8.50;4.30;;;;;;;12.08;55.45;98139.52;236098;1193;138533;-60
2021/11/04 18:10:07;;;;;;;7.10;4.30;;;;;;;11.93;55.64;98137.35;236623;1195;141154;-58
2021/11/04 18:15:10;;;;;;;7.60;3.90;;;;;;;11.82;55.59;98138.65;236529;1193;138494;-57
2021/11/04 18:20:13;;;;;;;7.80;4.60;;;;;;;11.71;55.61;98143.58;236462;1193;139506;-59
2021/11/04 18:25:16;;;;;;;11.40;5.00;;;;;;;11.61;55.99;98136.26;236017;1195;138695;-59
2021/11/04 18:30:20;;;;;;;10.90;4.80;;;;;;;11.54;56.29;98139.81;236410;1194;139022;-59
2021/11/04 18:35:23;;;;;;;7.90;4.10;;;;;;;11.49;56.06;98140.42;236487;1194;138704;-58
2021/11/04 18:40:26;;;;;;;8.10;4.60;;;;;;;11.42;56.18;98150.55;236508;1194;138135;-61
2021/11/04 18:45:30;;;;;;;17.70;9.90;;;;;;;11.35;56.69;98150.08;236287;1193;138374;-61
2021/11/04 18:50:34;;;;;;;11.40;5.90;;;;;;;11.42;56.95;98165.33;236537;1193;139058;-59
2021/11/04 18:55:38;;;;;;;9.80;5.20;;;;;;;11.39;56.84;98182.24;236479;1193;138582;-59
2021/11/04 19:00:42;;;;;;;10.40;5.60;;;;;;;11.31;56.60;98196.93;235929;1193;139193;-58
2021/11/04 19:05:45;;;;;;;9.70;5.60;;;;;;;11.25;56.57;98203.73;236441;1193;139073;-59
2021/11/04 19:10:48;;;;;;;9.60;5.60;;;;;;;11.20;57.05;98219.41;236400;1193;139093;-58
2021/11/04 19:15:52;;;;;;;14.60;8.60;;;;;;;11.16;56.80;98221.84;236494;1194;139367;-60
2021/11/04 19:20:55;;;;;;;17.80;11.50;;;;;;;11.19;57.08;98225.92;236328;1195;138699;-60
2021/11/04 19:25:58;;;;;;;12.20;7.00;;;;;;;11.29;57.25;98240.95;236259;1193;138625;-59
2021/11/04 19:31:01;;;;;;;12.30;7.00;;;;;;;11.24;56.88;98245.71;236490;1193;138572;-60
2021/11/04 19:36:04;;;;;;;14.90;6.50;;;;;;;11.20;56.95;98240.93;236377;1193;139676;-59
2021/11/04 19:41:08;;;;;;;13.10;6.40;;;;;;;11.17;56.73;98235.13;236479;1193;138963;-59
2021/11/04 19:46:11;;;;;;;90.80;56.40;;;;;;;11.12;57.28;98232.27;236634;1193;208811;-59
2021/11/04 19:51:15;;;;;;;12.80;7.10;;;;;;;11.15;57.53;98234.02;236201;1195;140453;-60
2021/11/04 19:56:18;;;;;;;15.10;5.70;;;;;;;11.10;57.03;98237.02;236382;1193;138596;-58
2021/11/04 20:01:22;;;;;;;6.10;3.70;;;;;;;11.13;56.52;98254.95;236425;1193;139893;-59
2021/11/04 20:06:25;;;;;;;5.30;2.90;;;;;;;11.22;56.42;98253.16;236407;1194;138221;-58
2021/11/04 20:11:29;;;;;;;3.00;1.80;;;;;;;11.34;56.05;98247.42;236358;1193;138139;-58
2021/11/04 20:16:32;;;;;;;7.10;4.00;;;;;;;11.52;55.64;98257.23;236521;1195;138133;-58
2021/11/04 20:21:35;;;;;;;19.60;12.20;;;;;;;11.69;55.93;98288.73;236545;1193;138213;-59
2021/11/04 20:26:38;;;;;;;12.50;6.00;;;;;;;11.75;55.51;98313.52;236252;1194;138741;-59
2021/11/04 20:31:42;;;;;;;14.70;7.00;;;;;;;11.67;54.98;98319.17;236597;1187;138651;-58
2021/11/04 20:36:45;;;;;;;9.30;4.60;;;;;;;11.60;55.19;98321.29;236445;1194;140043;-57
2021/11/04 20:41:49;;;;;;;7.60;4.10;;;;;;;11.51;54.69;98326.23;236215;1195;138036;-59
2021/11/04 20:46:52;;;;;;;8.30;4.20;;;;;;;11.45;54.67;98344.65;236253;1195;139172;-58
2021/11/04 20:51:55;;;;;;;9.30;4.30;;;;;;;11.42;54.48;98349.11;235919;1195;141076;-58
2021/11/04 20:56:58;;;;;;;7.40;4.00;;;;;;;11.37;54.37;98354.11;236609;1193;138240;-58
2021/11/04 21:02:01;;;;;;;8.80;5.10;;;;;;;11.33;54.16;98364.54;236601;1193;138058;-59
2021/11/04 21:07:04;;;;;;;11.20;5.10;;;;;;;11.27;54.54;98365.04;236586;1193;137967;-57
2021/11/04 21:12:08;;;;;;;10.30;5.30;;;;;;;11.18;54.19;98372.66;236603;1193;139777;-61
2021/11/04 21:17:11;;;;;;;10.00;5.10;;;;;;;11.09;54.29;98386.04;236139;1194;138587;-59
2021/11/04 21:22:14;;;;;;;8.60;4.40;;;;;;;11.02;54.53;98394.93;236678;1194;139026;-59
2021/11/04 21:27:17;;;;;;;6.70;4.00;;;;;;;10.95;54.18;98401.30;236562;1193;138367;-58
2021/11/04 21:32:20;;;;;;;7.50;3.70;;;;;;;10.90;54.76;98401.70;236457;1194;138110;-57
2021/11/04 21:37:24;;;;;;;7.30;2.90;;;;;;;10.88;54.55;98402.53;236410;1194;139112;-58
2021/11/04 21:42:29;;;;;;;5.10;2.80;;;;;;;10.84;54.33;98406.19;236558;1195;138434;-58
2021/11/04 21:47:32;;;;;;;4.20;2.20;;;;;;;10.84;54.69;98415.65;236396;1194;138461;-58
2021/11/04 21:52:39;;;;;;;4.70;2.10;;;;;;;10.84;54.68;98420.58;236216;1193;138256;-59
2021/11/04 21:57:43;;;;;;;3.30;1.80;;;;;;;10.87;54.79;98443.61;236619;1193;138344;-58
2021/11/04 22:02:57;;;;;;;2.60;1.40;;;;;;;10.86;54.54;98458.89;236631;1193;138268;-57
2021/11/04 22:08:00;;;;;;;2.40;1.70;;;;;;;10.87;54.84;98468.64;236443;1193;138112;-59
2021/11/04 22:13:03;;;;;;;6.00;1.90;;;;;;;10.86;54.69;98486.94;236588;1193;139156;-57
2021/11/04 22:18:06;;;;;;;2.80;1.60;;;;;;;10.87;54.75;98492.59;236577;1194;138506;-57
2021/11/04 22:23:10;;;;;;;5.20;1.30;;;;;;;10.87;54.81;98498.77;236648;1193;138691;-58
2021/11/04 22:28:15;;;;;;;3.00;1.50;;;;;;;10.88;54.82;98502.80;236681;1194;138157;-61
2021/11/04 22:33:19;;;;;;;2.50;1.20;;;;;;;10.90;54.72;98503.72;235745;1194;138762;-57
2021/11/04 22:38:24;;;;;;;4.50;1.10;;;;;;;10.89;54.70;98496.69;236317;1193;138820;-59
2021/11/04 22:43:27;;;;;;;1.10;1.00;;;;;;;10.86;54.61;98504.75;236621;1193;138849;-57
2021/11/04 22:48:36;;;;;;;1.90;1.10;;;;;;;10.79;54.43;98515.33;236592;1193;138113;-59
2021/11/04 22:53:40;;;;;;;2.10;1.20;;;;;;;10.75;54.41;98517.02;236559;1193;138493;-57
2021/11/04 22:58:43;;;;;;;1.50;0.90;;;;;;;10.73;54.32;98524.29;236623;1193;138332;-57
2021/11/04 23:03:47;;;;;;;1.30;0.80;;;;;;;10.69;54.24;98525.32;236460;1193;138081;-57
2021/11/04 23:08:51;;;;;;;4.40;1.00;;;;;;;10.65;54.30;98541.02;236209;1190;138697;-57
2021/11/04 23:13:55;;;;;;;1.70;1.00;;;;;;;10.62;53.91;98546.84;236225;1194;139085;-58